Portada
METAR-TAF:

METAR-TAF

Aeroports :

Aeroport Internacional de Mitiga

Trípoli, Líbia

latitud: 32-54N, longitud: 13-17E, altitud: 11 m

METAR: manca

Hora: 10:27 (08:27 UTC)

Pronòstic

L'informe es va fer fa 21 hores i 27 minuts, a les 11:00 UTC
Pronòstic vàlid del 17 a les 12 UTC al 18 a les 12 UTC
Vent 15 kt del Oest/Sud-Oest
Visibilitat: 8000 m
Temporalment
l' 17 a les 12 UTC al 18 a les 06 UTC
Visibilitat: 6000 m
Núvols disperses a una alçada de 2000 ft
Cel ennuvolat a una alçada de 7000 ft
pluja
Evolucionant progressivament
l' 18 a les 02 UTC al 18 a les 04 UTC
Vent 15 kt del Oest amb ràfegues de 25 kt

TAF: HLLM 171100Z 1712/1812 24015KT 8000 SCT025SCT080 TEMPO 1712/1806 6000 RA SCT020 BKN070 BECMG 1802/1804 26015G25KT

Observacions i pronòstics meteorològics de més de 4000 aeroports (METAR i TAF).

Les estacions disponibles són els punts grocs i vermells al mapa.

Posi el ratolí al punt desitjat per veure el nom de l'estació.

Feu clic per veure les observacions i els pronòstics meteorològics.

Per canviar el mapa: feu clic els botons verds amb una creu de color negre per apropar; al botó verd amb un guió per allunyar la imatge; o en les fletxes verdes per a mapes adjacents.


METAR-TAF: